Time,TemperatureF,DewpointF,PressureIn,WindDirection,WindDirectionDegrees,WindSpeedMPH,WindSpeedGustMPH,Humidity,HourlyPrecipIn,Conditions,Clouds,dailyrainin,SolarRadiationWatts/m^2,SoftwareType,DateUTC
2014-04-24 00:02:00,45.7,22.7,30.24,West,270,2.3,2.3,40,0.00,CLR,FEW,0.00,0.0,WeatherDisplay:10.37,2014-04-24 07:02:00,
2014-04-24 00:07:00,45.9,22.9,30.24,WSW,248,2.3,2.3,40,0.00,CLR,FEW,0.00,0.0,WeatherDisplay:10.37,2014-04-24 07:07:00,
2014-04-24 00:12:00,45.9,22.9,30.24,WSW,248,0.0,0.0,40,0.00,CLR,FEW,0.00,0.0,WeatherDisplay:10.37,2014-04-24 07:12:00,
2014-04-24 00:17:00,45.7,22.7,30.24,WSW,248,2.3,2.3,40,0.00,CLR,FEW,0.00,0.0,WeatherDisplay:10.37,2014-04-24 07:17:00,
2014-04-24 00:22:00,45.9,22.3,30.24,West,270,2.3,2.3,39,0.00,CLR,FEW,0.00,0.0,WeatherDisplay:10.37,2014-04-24 07:22:00,
2014-04-24 00:27:00,46.0,22.4,30.26,WSW,248,2.3,2.3,39,0.00,CLR,FEW,0.00,0.0,WeatherDisplay:10.37,2014-04-24 07:27:00,
2014-04-24 00:32:00,46.2,22.6,30.26,WSW,248,1.1,0.0,39,0.00,CLR,FEW,0.00,0.0,WeatherDisplay:10.37,2014-04-24 07:32:00,
2014-04-24 00:37:00,46.2,22.6,30.26,WSW,248,0.0,0.0,39,0.00,CLR,FEW,0.00,0.0,WeatherDisplay:10.37,2014-04-24 07:37:00,
2014-04-24 00:42:00,46.2,22.6,30.26,WSW,248,0.0,0.0,39,0.00,CLR,FEW,0.00,0.0,WeatherDisplay:10.37,2014-04-24 07:42:00,
2014-04-24 00:47:00,46.0,22.4,30.26,WSW,248,0.0,0.0,39,0.00,CLR,FEW,0.00,0.0,WeatherDisplay:10.37,2014-04-24 07:47:00,
2014-04-24 00:52:00,46.2,22.6,30.26,WSW,248,0.0,0.0,39,0.00,CLR,FEW,0.00,0.0,WeatherDisplay:10.37,2014-04-24 07:52:00,
2014-04-24 00:57:00,46.4,22.1,30.24,ESE,112,4.0,4.0,38,0.00,CLR,FEW,0.00,0.0,WeatherDisplay:10.37,2014-04-24 07:57:00,
2014-04-24 01:02:00,47.3,21.7,30.24,WNW,292,5.8,5.8,36,0.00,CLR,FEW,0.00,0.0,WeatherDisplay:10.37,2014-04-24 08:02:00,
2014-04-24 01:07:00,47.8,22.1,30.24,WNW,292,1.1,1.1,36,0.00,CLR,FEW,0.00,0.0,WeatherDisplay:10.37,2014-04-24 08:07:00,
2014-04-24 01:12:00,48.2,21.1,30.24,WNW,292,2.3,2.6,34,0.00,CLR,FEW,0.00,0.0,WeatherDisplay:10.37,2014-04-24 08:12:00,
2014-04-24 01:17:00,48.4,20.6,30.24,NNE,22,2.3,2.3,33,0.00,CLR,FEW,0.00,0.0,WeatherDisplay:10.37,2014-04-24 08:17:00,
2014-04-24 01:22:00,48.6,21.4,30.24,ENE,68,3.5,3.5,34,0.00,CLR,FEW,0.00,0.0,WeatherDisplay:10.37,2014-04-24 08:22:00,
2014-04-24 01:27:00,48.6,21.4,30.24,WSW,248,2.3,2.3,34,0.00,CLR,FEW,0.00,0.0,WeatherDisplay:10.37,2014-04-24 08:27:00,
2014-04-24 01:32:00,48.4,20.6,30.24,WNW,292,3.5,3.5,33,0.00,CLR,FEW,0.00,0.0,WeatherDisplay:10.37,2014-04-24 08:32:00,
2014-04-24 01:37:00,48.0,21.6,30.24,WNW,292,2.2,0.0,35,0.00,CLR,FEW,0.00,0.0,WeatherDisplay:10.37,2014-04-24 08:37:00,
2014-04-24 01:42:00,47.8,20.8,30.24,WNW,292,2.3,2.3,34,0.00,CLR,FEW,0.00,0.0,WeatherDisplay:10.37,2014-04-24 08:42:00,
2014-04-24 01:47:00,47.7,20.6,30.24,WSW,248,0.0,0.0,34,0.00,CLR,FEW,0.00,0.0,WeatherDisplay:10.37,2014-04-24 08:47:00,
2014-04-24 01:52:00,47.3,21.0,30.24,SSE,158,2.6,2.6,35,0.00,CLR,FEW,0.00,0.0,WeatherDisplay:10.37,2014-04-24 08:52:00,
2014-04-24 01:57:00,47.1,21.5,30.24,SSE,158,1.1,0.0,36,0.00,CLR,FEW,0.00,0.0,WeatherDisplay:10.37,2014-04-24 08:57:00,
2014-04-24 02:02:00,46.8,21.8,30.24,WSW,248,2.3,0.0,37,0.00,CLR,FEW,0.00,0.0,WeatherDisplay:10.37,2014-04-24 09:02:00,
2014-04-24 02:07:00,46.6,21.7,30.24,WNW,292,2.3,2.3,37,0.00,CLR,FEW,0.00,0.0,WeatherDisplay:10.37,2014-04-24 09:07:00,
2014-04-24 02:12:00,46.2,22.0,30.24,West,270,0.0,0.0,38,0.00,CLR,FEW,0.00,0.0,WeatherDisplay:10.37,2014-04-24 09:12:00,
2014-04-24 02:17:00,45.9,21.7,30.24,WSW,248,0.0,0.0,38,0.00,CLR,FEW,0.00,0.0,WeatherDisplay:10.37,2014-04-24 09:17:00,
2014-04-24 02:22:00,45.1,21.6,30.24,WSW,248,0.0,0.0,39,0.00,CLR,FEW,0.00,0.0,WeatherDisplay:10.37,2014-04-24 09:22:00,
2014-04-24 02:27:00,44.8,20.7,30.24,WSW,248,0.0,0.0,38,0.00,CLR,FEW,0.00,0.0,WeatherDisplay:10.37,2014-04-24 09:27:00,
2014-04-24 02:32:00,44.4,21.0,30.24,WSW,248,0.0,0.0,39,0.00,CLR,FEW,0.00,0.0,WeatherDisplay:10.37,2014-04-24 09:32:00,
2014-04-24 02:37:00,43.9,21.1,30.24,WSW,248,0.0,0.0,40,0.00,CLR,FEW,0.00,0.0,WeatherDisplay:10.37,2014-04-24 09:37:00,
2014-04-24 02:42:00,43.5,20.2,30.24,WSW,248,1.1,0.0,39,0.00,CLR,FEW,0.00,0.0,WeatherDisplay:10.37,2014-04-24 09:42:00,
2014-04-24 02:47:00,43.2,21.0,30.24,WSW,248,0.0,0.0,41,0.00,CLR,FEW,0.00,0.0,WeatherDisplay:10.37,2014-04-24 09:47:00,
2014-04-24 02:52:00,42.8,20.1,30.24,WSW,248,0.0,0.0,40,0.00,CLR,FEW,0.00,0.0,WeatherDisplay:10.37,2014-04-24 09:52:00,
2014-04-24 02:57:00,42.4,20.9,30.24,WSW,248,0.0,0.0,42,0.00,CLR,FEW,0.00,0.0,WeatherDisplay:10.37,2014-04-24 09:57:00,
2014-04-24 03:02:00,42.1,21.2,30.24,WSW,248,2.3,2.3,43,0.00,CLR,FEW,0.00,0.0,WeatherDisplay:10.37,2014-04-24 10:02:00,
2014-04-24 03:07:00,41.5,21.8,30.24,West,270,2.4,2.4,45,0.00,CLR,FEW,0.00,0.0,WeatherDisplay:10.37,2014-04-24 10:07:00,
2014-04-24 03:12:00,41.5,20.7,30.24,WSW,248,2.6,2.6,43,0.00,CLR,FEW,0.00,0.0,WeatherDisplay:10.37,2014-04-24 10:12:00,
2014-04-24 03:17:00,41.4,20.0,30.24,West,270,2.3,2.3,42,0.00,CLR,FEW,0.00,0.0,WeatherDisplay:10.37,2014-04-24 10:17:00,
2014-04-24 03:22:00,41.2,20.3,30.24,West,270,0.0,0.0,43,0.00,CLR,FEW,0.00,0.0,WeatherDisplay:10.37,2014-04-24 10:22:00,
2014-04-24 03:27:00,41.2,20.9,30.24,WSW,248,0.0,0.0,44,0.00,CLR,FEW,0.00,0.0,WeatherDisplay:10.37,2014-04-24 10:27:00,
2014-04-24 03:32:00,41.4,21.6,30.24,West,270,2.3,2.4,45,0.00,CLR,FEW,0.00,0.0,WeatherDisplay:10.37,2014-04-24 10:32:00,
2014-04-24 03:37:00,41.5,21.2,30.24,West,270,1.4,1.4,44,0.00,CLR,FEW,0.00,0.0,WeatherDisplay:10.37,2014-04-24 10:37:00,
2014-04-24 03:42:00,41.4,22.1,30.24,West,270,2.4,2.4,46,0.00,CLR,FEW,0.00,0.0,WeatherDisplay:10.37,2014-04-24 10:42:00,
2014-04-24 03:47:00,41.5,22.3,30.24,West,270,3.5,3.5,46,0.00,CLR,FEW,0.00,0.0,WeatherDisplay:10.37,2014-04-24 10:47:00,
2014-04-24 03:52:00,41.5,22.3,30.24,West,270,2.4,2.4,46,0.00,CLR,FEW,0.00,0.0,WeatherDisplay:10.37,2014-04-24 10:52:00,
2014-04-24 03:57:00,41.4,21.6,30.24,WSW,248,2.3,2.3,45,0.00,CLR,FEW,0.00,0.0,WeatherDisplay:10.37,2014-04-24 10:57:00,
2014-04-24 04:02:00,41.2,21.9,30.24,West,270,2.3,2.3,46,0.00,CLR,FEW,0.00,0.0,WeatherDisplay:10.37,2014-04-24 11:02:00,
2014-04-24 04:07:00,41.0,21.8,30.24,West,270,2.3,2.3,46,0.00,CLR,FEW,0.00,0.0,WeatherDisplay:10.37,2014-04-24 11:07:00,
2014-04-24 04:12:00,40.8,21.1,30.24,WSW,248,0.0,0.0,45,0.00,CLR,FEW,0.00,0.0,WeatherDisplay:10.37,2014-04-24 11:12:00,
2014-04-24 04:17:00,40.6,21.4,30.24,WSW,248,0.0,0.0,46,0.00,CLR,FEW,0.00,0.0,WeatherDisplay:10.37,2014-04-24 11:17:00,
2014-04-24 04:22:00,40.6,22.5,30.24,WSW,248,1.6,0.0,48,0.00,CLR,FEW,0.00,0.0,WeatherDisplay:10.37,2014-04-24 11:22:00,
2014-04-24 04:27:00,40.6,22.5,30.24,West,270,1.4,1.6,48,0.00,CLR,FEW,0.00,0.0,WeatherDisplay:10.37,2014-04-24 11:27:00,
2014-04-24 04:32:00,40.6,22.5,30.24,WSW,248,2.3,2.3,48,0.00,CLR,FEW,0.00,0.0,WeatherDisplay:10.37,2014-04-24 11:32:00,
2014-04-24 04:37:00,41.0,21.8,30.24,WSW,248,0.0,0.0,46,0.00,CLR,FEW,0.00,0.0,WeatherDisplay:10.37,2014-04-24 11:37:00,
2014-04-24 04:42:00,41.0,22.8,30.24,WSW,248,0.0,0.0,48,0.00,CLR,FEW,0.00,0.0,WeatherDisplay:10.37,2014-04-24 11:42:00,
2014-04-24 04:47:00,41.0,21.8,30.24,WSW,248,0.0,0.0,46,0.00,CLR,FEW,0.00,0.0,WeatherDisplay:10.37,2014-04-24 11:47:00,
2014-04-24 04:52:00,40.8,22.6,30.24,West,270,2.4,2.4,48,0.00,CLR,FEW,0.00,0.0,WeatherDisplay:10.37,2014-04-24 11:52:00,
2014-04-24 04:57:00,41.0,22.3,30.24,West,270,1.1,0.0,47,0.00,CLR,FEW,0.00,0.0,WeatherDisplay:10.37,2014-04-24 11:57:00,
2014-04-24 05:02:00,40.8,22.6,30.24,West,270,2.3,2.3,48,0.00,CLR,FEW,0.00,0.0,WeatherDisplay:10.37,2014-04-24 12:02:00,
2014-04-24 05:07:00,41.0,22.8,30.24,West,270,2.3,2.3,48,0.00,CLR,FEW,0.00,0.0,WeatherDisplay:10.37,2014-04-24 12:07:00,
2014-04-24 05:12:00,40.8,22.1,30.21,WSW,248,0.0,0.0,47,0.00,CLR,FEW,0.00,0.0,WeatherDisplay:10.37,2014-04-24 12:12:00,
2014-04-24 05:17:00,41.2,22.5,30.21,WSW,248,2.4,2.6,47,0.00,CLR,FEW,0.00,0.0,WeatherDisplay:10.37,2014-04-24 12:17:00,
2014-04-24 05:22:00,41.4,22.6,30.21,WSW,248,3.5,3.5,47,0.00,CLR,FEW,0.00,0.0,WeatherDisplay:10.37,2014-04-24 12:22:00,
2014-04-24 05:27:00,41.7,22.9,30.24,WSW,248,1.1,0.0,47,0.00,CLR,FEW,0.00,0.0,WeatherDisplay:10.37,2014-04-24 12:27:00,
2014-04-24 05:32:00,41.5,22.8,30.24,West,270,2.3,2.3,47,0.00,CLR,FEW,0.00,0.0,WeatherDisplay:10.37,2014-04-24 12:32:00,
2014-04-24 05:37:00,41.5,22.3,30.24,WSW,248,0.0,0.0,46,0.00,CLR,FEW,0.00,0.0,WeatherDisplay:10.37,2014-04-24 12:37:00,
2014-04-24 05:42:00,41.4,23.1,30.24,West,270,2.6,2.6,48,0.00,CLR,FEW,0.00,0.0,WeatherDisplay:10.37,2014-04-24 12:42:00,
2014-04-24 05:47:00,42.1,22.8,30.24,WSW,248,2.3,2.3,46,0.00,CLR,FEW,0.00,0.0,WeatherDisplay:10.37,2014-04-24 12:47:00,
2014-04-24 05:52:00,42.4,23.1,30.24,WSW,248,0.0,0.0,46,0.00,CLR,FEW,0.00,0.0,WeatherDisplay:10.37,2014-04-24 12:52:00,
2014-04-24 05:57:00,42.4,23.1,30.21,WSW,248,1.1,1.1,46,0.00,CLR,FEW,0.00,0.0,WeatherDisplay:10.37,2014-04-24 12:57:00,
2014-04-24 06:02:00,42.4,23.1,30.21,WSW,248,0.0,0.0,46,0.00,OVC,FEW,0.00,0.0,WeatherDisplay:10.37,2014-04-24 13:02:00,
2014-04-24 06:07:00,42.3,22.9,30.21,WSW,248,2.3,2.3,46,0.00,OVC,FEW,0.00,0.0,WeatherDisplay:10.37,2014-04-24 13:07:00,
2014-04-24 06:12:00,42.1,23.8,30.24,West,270,2.4,2.4,48,0.00,OVC,FEW,0.00,0.0,WeatherDisplay:10.37,2014-04-24 13:12:00,
2014-04-24 06:17:00,41.9,23.6,30.24,WSW,248,0.0,0.0,48,0.00,OVC,FEW,0.00,0.0,WeatherDisplay:10.37,2014-04-24 13:17:00,
2014-04-24 06:22:00,41.5,23.8,30.24,WSW,248,0.0,0.0,49,0.00,OVC,FEW,0.00,0.0,WeatherDisplay:10.37,2014-04-24 13:22:00,
2014-04-24 06:27:00,41.2,23.9,30.24,WSW,248,0.0,0.0,50,0.00,OVC,FEW,0.00,0.0,WeatherDisplay:10.37,2014-04-24 13:27:00,
2014-04-24 06:32:00,40.8,24.1,30.24,WNW,292,2.3,2.3,51,0.00,OVC,FEW,0.00,0.0,WeatherDisplay:10.37,2014-04-24 13:32:00,
2014-04-24 06:37:00,40.6,23.9,30.24,West,270,0.0,0.0,51,0.00,OVC,FEW,0.00,0.0,WeatherDisplay:10.37,2014-04-24 13:37:00,
2014-04-24 06:42:00,40.6,23.9,30.24,WNW,292,2.4,2.4,51,0.00,OVC,FEW,0.00,0.0,WeatherDisplay:10.37,2014-04-24 13:42:00,
2014-04-24 06:47:00,40.8,23.6,30.24,WSW,248,2.3,2.4,50,0.00,OVC,FEW,0.00,0.0,WeatherDisplay:10.37,2014-04-24 13:47:00,
2014-04-24 06:52:00,40.8,23.6,30.24,WSW,248,0.0,0.0,50,0.00,OVC,FEW,0.00,0.0,WeatherDisplay:10.37,2014-04-24 13:52:00,
2014-04-24 06:57:00,41.0,23.3,30.21,WSW,248,1.4,1.4,49,0.00,OVC,FEW,0.00,0.0,WeatherDisplay:10.37,2014-04-24 13:57:00,
2014-04-24 07:02:00,41.9,23.6,30.21,West,270,0.0,0.0,48,0.00,OVC,FEW,0.00,0.0,WeatherDisplay:10.37,2014-04-24 14:02:00,
2014-04-24 07:07:00,42.8,23.9,30.21,West,270,0.0,0.0,47,0.00,OVC,FEW,0.00,0.0,WeatherDisplay:10.37,2014-04-24 14:07:00,
2014-04-24 07:12:00,43.7,24.8,30.24,West,270,1.4,1.4,47,0.00,OVC,FEW,0.00,100.0,WeatherDisplay:10.37,2014-04-24 14:12:00,
2014-04-24 07:17:00,44.6,24.5,30.24,West,270,0.0,0.0,45,0.00,OVC,FEW,0.00,100.0,WeatherDisplay:10.37,2014-04-24 14:17:00,
2014-04-24 07:22:00,45.7,24.4,30.24,WSW,248,2.3,2.3,43,0.00,OVC,FEW,0.00,100.0,WeatherDisplay:10.37,2014-04-24 14:22:00,
2014-04-24 07:27:00,46.6,24.7,30.24,WNW,292,2.3,2.3,42,0.00,OVC,FEW,0.00,100.0,WeatherDisplay:10.37,2014-04-24 14:27:00,
2014-04-24 07:32:00,47.5,24.9,30.24,North,0,2.0,0.0,41,0.00,OVC,FEW,0.00,100.0,WeatherDisplay:10.37,2014-04-24 14:32:00,
2014-04-24 07:37:00,48.6,24.7,30.24,NNE,22,3.8,3.8,39,0.00,OVC,FEW,0.00,100.0,WeatherDisplay:10.37,2014-04-24 14:37:00,
2014-04-24 07:42:00,49.5,24.9,30.24,SSE,158,3.5,3.5,38,0.00,OVC,FEW,0.00,100.0,WeatherDisplay:10.37,2014-04-24 14:42:00,
2014-04-24 07:47:00,49.8,25.2,30.24,West,270,2.3,2.3,38,0.00,OVC,FEW,0.00,100.0,WeatherDisplay:10.37,2014-04-24 14:47:00,
2014-04-24 07:52:00,50.4,25.7,30.24,ESE,112,0.0,0.0,38,0.00,OVC,FEW,0.00,200.0,WeatherDisplay:10.37,2014-04-24 14:52:00,
2014-04-24 07:57:00,50.9,25.5,30.24,SSW,202,0.0,0.0,37,0.00,OVC,FEW,0.00,200.0,WeatherDisplay:10.37,2014-04-24 14:57:00,
2014-04-24 08:02:00,51.1,25.0,30.24,West,270,2.3,2.3,36,0.00,OVC,FEW,0.00,200.0,WeatherDisplay:10.37,2014-04-24 15:02:00,
2014-04-24 08:07:00,51.6,25.5,30.24,ESE,112,0.0,0.0,36,0.00,OVC,FEW,0.00,200.0,WeatherDisplay:10.37,2014-04-24 15:07:00,
2014-04-24 08:12:00,52.2,26.0,30.24,ESE,112,2.3,2.3,36,0.00,OVC,FEW,0.00,200.0,WeatherDisplay:10.37,2014-04-24 15:12:00,
2014-04-24 08:17:00,52.3,26.1,30.24,WNW,292,3.1,3.1,36,0.00,OVC,FEW,0.00,200.0,WeatherDisplay:10.37,2014-04-24 15:17:00,
2014-04-24 08:22:00,52.3,26.1,30.24,WNW,292,1.4,0.0,36,0.00,BKN,FEW,0.00,300.0,WeatherDisplay:10.37,2014-04-24 15:22:00,
2014-04-24 08:27:00,53.1,26.8,30.24,South,180,0.0,0.0,36,0.00,BKN,FEW,0.00,300.0,WeatherDisplay:10.37,2014-04-24 15:27:00,
2014-04-24 08:32:00,53.6,25.9,30.24,NE,45,2.3,2.3,34,0.00,BKN,FEW,0.00,300.0,WeatherDisplay:10.37,2014-04-24 15:32:00,
2014-04-24 08:37:00,53.2,24.8,30.24,West,270,3.5,3.5,33,0.00,BKN,FEW,0.00,300.0,WeatherDisplay:10.37,2014-04-24 15:37:00,
2014-04-24 08:42:00,53.4,25.0,30.21,WNW,292,3.5,3.5,33,0.00,BKN,FEW,0.00,300.0,WeatherDisplay:10.37,2014-04-24 15:42:00,
2014-04-24 08:47:00,54.1,24.9,30.21,ESE,112,3.5,3.5,32,0.00,SCT,FEW,0.00,400.0,WeatherDisplay:10.37,2014-04-24 15:47:00,
2014-04-24 08:52:00,55.0,26.4,30.21,ESE,112,2.3,2.3,33,0.00,SCT,FEW,0.00,400.0,WeatherDisplay:10.37,2014-04-24 15:52:00,
2014-04-24 08:57:00,55.4,26.0,30.21,SSE,158,4.6,4.6,32,0.00,FEW,,0.00,400.0,WeatherDisplay:10.37,2014-04-24 15:57:00,
2014-04-24 09:02:00,55.4,25.2,30.21,NNW,338,2.3,2.3,31,0.00,CLR,FEW,0.00,500.0,WeatherDisplay:10.37,2014-04-24 16:02:00,
2014-04-24 09:07:00,55.4,24.4,30.21,NNW,338,4.6,4.6,30,0.00,CLR,FEW,0.00,500.0,WeatherDisplay:10.37,2014-04-24 16:07:00,
2014-04-24 09:12:00,55.4,24.4,30.24,WNW,292,3.5,3.5,30,0.00,CLR,FEW,0.00,600.0,WeatherDisplay:10.37,2014-04-24 16:12:00,
2014-04-24 09:17:00,55.9,24.9,30.24,West,270,3.6,3.6,30,0.00,CLR,FEW,0.00,600.0,WeatherDisplay:10.37,2014-04-24 16:17:00,
2014-04-24 09:22:00,56.5,25.4,30.24,ESE,112,3.5,3.5,30,0.00,CLR,FEW,0.00,600.0,WeatherDisplay:10.37,2014-04-24 16:22:00,
2014-04-24 09:27:00,56.7,24.7,30.21,ESE,112,3.5,3.5,29,0.00,CLR,FEW,0.00,600.0,WeatherDisplay:10.37,2014-04-24 16:27:00,
2014-04-24 09:32:00,57.4,25.3,30.21,NNE,22,3.5,3.5,29,0.00,CLR,FEW,0.00,600.0,WeatherDisplay:10.37,2014-04-24 16:32:00,
2014-04-24 09:37:00,57.2,25.2,30.21,East,90,3.5,3.5,29,0.00,CLR,FEW,0.00,600.0,WeatherDisplay:10.37,2014-04-24 16:37:00,
2014-04-24 09:42:00,57.6,24.7,30.21,SSE,158,8.7,8.7,28,0.00,CLR,FEW,0.00,600.0,WeatherDisplay:10.37,2014-04-24 16:42:00,
2014-04-24 09:47:00,58.3,25.3,30.21,ESE,112,5.8,5.8,28,0.00,CLR,FEW,0.00,800.0,WeatherDisplay:10.37,2014-04-24 16:47:00,
2014-04-24 09:52:00,58.8,24.9,30.21,SE,135,4.6,4.6,27,0.00,CLR,FEW,0.00,900.0,WeatherDisplay:10.37,2014-04-24 16:52:00,
2014-04-24 09:57:00,59.4,25.3,30.21,West,270,3.5,3.5,27,0.00,CLR,FEW,0.00,900.0,WeatherDisplay:10.37,2014-04-24 16:57:00,
2014-04-24 10:02:00,59.5,25.5,30.21,SSW,202,3.5,3.5,27,0.00,CLR,FEW,0.00,600.0,WeatherDisplay:10.37,2014-04-24 17:02:00,
2014-04-24 10:07:00,59.9,25.8,30.21,SE,135,3.5,3.5,27,0.00,CLR,FEW,0.00,400.0,WeatherDisplay:10.37,2014-04-24 17:07:00,
2014-04-24 10:12:00,59.4,24.4,30.21,East,90,5.8,5.8,26,0.00,CLR,FEW,0.00,500.0,WeatherDisplay:10.37,2014-04-24 17:12:00,
2014-04-24 10:17:00,58.8,24.0,30.21,ESE,112,8.1,8.1,26,0.00,CLR,FEW,0.00,500.0,WeatherDisplay:10.37,2014-04-24 17:17:00,
2014-04-24 10:22:00,58.5,23.7,30.21,SE,135,9.2,9.2,26,0.00,CLR,FEW,0.00,500.0,WeatherDisplay:10.37,2014-04-24 17:22:00,
2014-04-24 10:27:00,58.5,23.7,30.21,South,180,5.8,5.8,26,0.00,CLR,FEW,0.00,500.0,WeatherDisplay:10.37,2014-04-24 17:27:00,
2014-04-24 10:32:00,58.5,23.7,30.21,WSW,248,3.5,3.5,26,0.00,CLR,FEW,0.00,500.0,WeatherDisplay:10.37,2014-04-24 17:32:00,
2014-04-24 10:37:00,58.6,23.8,30.21,WNW,292,2.3,2.3,26,0.00,CLR,FEW,0.00,1000.0,WeatherDisplay:10.37,2014-04-24 17:37:00,
2014-04-24 10:42:00,58.8,24.0,30.21,West,270,4.6,4.6,26,0.00,CLR,FEW,0.00,500.0,WeatherDisplay:10.37,2014-04-24 17:42:00,
2014-04-24 10:47:00,58.5,23.7,30.21,SSE,158,8.1,8.1,26,0.00,CLR,FEW,0.00,900.0,WeatherDisplay:10.37,2014-04-24 17:47:00,
2014-04-24 10:52:00,58.5,23.7,30.21,SSE,158,4.9,4.9,26,0.00,CLR,FEW,0.00,700.0,WeatherDisplay:10.37,2014-04-24 17:52:00,
2014-04-24 10:57:00,58.5,23.7,30.21,SSE,158,3.8,3.8,26,0.00,CLR,FEW,0.00,700.0,WeatherDisplay:10.37,2014-04-24 17:57:00,
2014-04-24 11:02:00,58.6,23.8,30.21,SSE,158,6.9,6.9,26,0.00,CLR,FEW,0.00,600.0,WeatherDisplay:10.37,2014-04-24 18:02:00,
2014-04-24 11:07:00,58.6,23.8,30.21,SSW,202,5.8,5.8,26,0.00,CLR,FEW,0.00,600.0,WeatherDisplay:10.37,2014-04-24 18:07:00,
2014-04-24 11:12:00,58.6,23.8,30.21,SSE,158,3.5,3.5,26,0.00,CLR,FEW,0.00,600.0,WeatherDisplay:10.37,2014-04-24 18:12:00,
2014-04-24 11:17:00,58.6,23.8,30.21,ESE,112,2.6,2.6,26,0.00,CLR,FEW,0.00,600.0,WeatherDisplay:10.37,2014-04-24 18:17:00,
2014-04-24 11:22:00,59.2,23.3,30.21,ENE,68,1.1,0.0,25,0.00,CLR,FEW,0.00,600.0,WeatherDisplay:10.37,2014-04-24 18:22:00,
2014-04-24 11:27:00,59.4,23.5,30.21,SSE,158,5.8,5.8,25,0.00,CLR,FEW,0.00,800.0,WeatherDisplay:10.37,2014-04-24 18:27:00,
2014-04-24 11:32:00,59.4,23.5,30.21,ESE,112,3.5,3.5,25,0.00,CLR,FEW,0.00,500.0,WeatherDisplay:10.37,2014-04-24 18:32:00,
2014-04-24 11:37:00,59.0,23.2,30.21,SSE,158,2.6,2.6,25,0.00,CLR,FEW,0.00,500.0,WeatherDisplay:10.37,2014-04-24 18:37:00,
2014-04-24 11:41:00,59.2,23.3,30.21,ESE,112,2.3,2.3,25,0.00,CLR,FEW,0.00,600.0,WeatherDisplay:10.37,2014-04-24 18:41:00,
2014-04-24 11:46:00,59.4,23.5,30.21,SSE,158,2.3,2.3,25,0.00,CLR,FEW,0.00,400.0,WeatherDisplay:10.37,2014-04-24 18:46:00,
2014-04-24 11:51:00,59.7,23.8,30.21,WSW,248,2.3,2.3,25,0.00,CLR,FEW,0.00,600.0,WeatherDisplay:10.37,2014-04-24 18:51:00,
2014-04-24 11:56:00,59.7,23.8,30.21,NNW,338,4.6,4.6,25,0.00,OVC,FEW,0.00,600.0,WeatherDisplay:10.37,2014-04-24 18:56:00,
2014-04-24 12:01:00,59.9,23.9,30.21,SE,135,5.8,5.8,25,0.00,OVC,FEW,0.00,800.0,WeatherDisplay:10.37,2014-04-24 19:01:00,
2014-04-24 12:06:00,60.1,24.1,30.21,WNW,292,8.1,8.1,25,0.00,OVC,FEW,0.00,700.0,WeatherDisplay:10.37,2014-04-24 19:06:00,
2014-04-24 12:11:00,60.4,24.4,30.21,WNW,292,6.9,6.9,25,0.00,OVC,FEW,0.00,1300.0,WeatherDisplay:10.37,2014-04-24 19:11:00,
2014-04-24 12:16:00,60.8,24.7,30.21,NW,315,4.6,4.6,25,0.00,OVC,FEW,0.00,800.0,WeatherDisplay:10.37,2014-04-24 19:16:00,
2014-04-24 12:21:00,61.0,24.9,30.21,SSW,212,3.0,8.0,25,0.00,OVC,FEW,0.00,1300.0,WeatherDisplay:10.37,2014-04-24 19:21:00,
2014-04-24 12:26:00,61.2,25.0,30.21,South,189,5.0,6.0,25,0.00,OVC,FEW,0.00,600.0,WeatherDisplay:10.37,2014-04-24 19:26:00,
2014-04-24 12:31:00,61.0,23.9,30.21,South,175,3.0,6.0,24,0.00,OVC,FEW,0.00,1600.0,WeatherDisplay:10.37,2014-04-24 19:31:00,
2014-04-24 12:36:00,61.0,24.9,30.21,ESE,121,1.0,3.0,25,0.00,OVC,FEW,0.00,600.0,WeatherDisplay:10.37,2014-04-24 19:36:00,
2014-04-24 12:41:00,61.1,25.0,30.21,ENE,68,3.0,6.0,25,0.00,OVC,FEW,0.00,500.0,WeatherDisplay:10.37,2014-04-24 19:41:00,
2014-04-24 12:46:00,60.8,24.7,30.21,SSE,153,3.0,4.0,25,0.00,OVC,FEW,0.00,600.0,WeatherDisplay:10.37,2014-04-24 19:46:00,
2014-04-24 12:51:00,60.7,24.6,30.21,SSW,194,3.0,6.0,25,0.00,OVC,FEW,0.00,600.0,WeatherDisplay:10.37,2014-04-24 19:51:00,
2014-04-24 12:56:00,61.1,25.0,30.21,SW,227,1.0,3.0,25,0.00,OVC,FEW,0.00,800.0,WeatherDisplay:10.37,2014-04-24 19:56:00,
2014-04-24 13:01:00,61.5,25.3,30.21,SW,225,2.3,2.3,25,0.00,OVC,FEW,0.00,800.0,WeatherDisplay:10.37,2014-04-24 20:01:00,
2014-04-24 13:06:00,61.9,25.6,30.21,WNW,292,3.5,3.5,25,0.00,OVC,FEW,0.00,800.0,WeatherDisplay:10.37,2014-04-24 20:06:00,
2014-04-24 13:11:00,61.7,25.5,30.21,ENE,68,9.8,9.8,25,0.00,OVC,FEW,0.00,900.0,WeatherDisplay:10.37,2014-04-24 20:11:00,
2014-04-24 13:16:00,61.7,24.5,30.21,WSW,248,5.8,5.8,24,0.00,OVC,FEW,0.00,1500.0,WeatherDisplay:10.37,2014-04-24 20:16:00,
2014-04-24 13:21:00,61.9,24.7,30.21,ESE,112,5.8,5.8,24,0.00,OVC,FEW,0.00,1500.0,WeatherDisplay:10.37,2014-04-24 20:21:00,
2014-04-24 13:26:00,61.7,24.5,30.18,ENE,68,3.5,3.5,24,0.00,OVC,FEW,0.00,1500.0,WeatherDisplay:10.37,2014-04-24 20:26:00,
2014-04-24 13:31:00,62.4,25.1,30.18,ESE,112,4.6,4.6,24,0.00,OVC,FEW,0.00,1600.0,WeatherDisplay:10.37,2014-04-24 20:31:00,
2014-04-24 13:36:00,62.6,25.3,30.18,SSE,158,12.7,12.7,24,0.00,OVC,FEW,0.00,1600.0,WeatherDisplay:10.37,2014-04-24 20:36:00,
2014-04-24 13:41:00,63.1,25.7,30.21,South,180,15.0,15.0,24,0.00,OVC,FEW,0.00,1600.0,WeatherDisplay:10.37,2014-04-24 20:41:00,
2014-04-24 13:46:00,63.1,25.7,30.21,SSE,158,6.9,6.9,24,0.00,OVC,FEW,0.00,1600.0,WeatherDisplay:10.37,2014-04-24 20:46:00,
2014-04-24 13:51:00,63.5,26.0,30.21,ENE,68,6.9,6.9,24,0.00,OVC,FEW,0.00,1600.0,WeatherDisplay:10.37,2014-04-24 20:51:00,
2014-04-24 13:56:00,64.0,26.5,30.21,WNW,292,5.8,6.2,24,0.00,OVC,FEW,0.00,1600.0,WeatherDisplay:10.37,2014-04-24 20:56:00,
2014-04-24 14:01:00,63.5,26.0,30.21,NNW,338,5.9,5.9,24,0.00,OVC,FEW,0.00,1600.0,WeatherDisplay:10.37,2014-04-24 21:01:00,
2014-04-24 14:06:00,63.9,25.3,30.21,SSE,158,9.2,9.2,23,0.00,OVC,FEW,0.00,1600.0,WeatherDisplay:10.37,2014-04-24 21:06:00,
2014-04-24 14:11:00,64.8,26.1,30.21,ESE,112,4.7,4.7,23,0.00,OVC,FEW,0.00,1600.0,WeatherDisplay:10.37,2014-04-24 21:11:00,
2014-04-24 14:16:00,64.6,25.9,30.21,NNW,338,9.2,9.2,23,0.00,OVC,FEW,0.00,1600.0,WeatherDisplay:10.37,2014-04-24 21:16:00,
2014-04-24 14:21:00,63.7,25.1,30.21,ESE,112,6.9,6.9,23,0.00,OVC,FEW,0.00,1600.0,WeatherDisplay:10.37,2014-04-24 21:21:00,
2014-04-24 14:26:00,64.2,25.6,30.21,ESE,112,10.4,10.4,23,0.00,OVC,FEW,0.00,1600.0,WeatherDisplay:10.37,2014-04-24 21:26:00,
2014-04-24 14:31:00,64.2,26.6,30.21,WSW,248,5.8,5.8,24,0.00,OVC,FEW,0.00,1600.0,WeatherDisplay:10.37,2014-04-24 21:31:00,
2014-04-24 14:36:00,64.4,25.8,30.21,WNW,292,10.4,10.4,23,0.00,OVC,FEW,0.00,800.0,WeatherDisplay:10.37,2014-04-24 21:36:00,
2014-04-24 14:41:00,63.0,24.5,30.21,NNE,22,14.0,14.0,23,0.00,OVC,FEW,0.00,800.0,WeatherDisplay:10.37,2014-04-24 21:41:00,
2014-04-24 14:46:00,63.9,25.3,30.21,ENE,68,3.5,3.8,23,0.00,OVC,FEW,0.00,800.0,WeatherDisplay:10.37,2014-04-24 21:46:00,
2014-04-24 14:51:00,64.0,25.5,30.21,SW,225,9.2,9.2,23,0.00,OVC,FEW,0.00,800.0,WeatherDisplay:10.37,2014-04-24 21:51:00,
2014-04-24 14:56:00,64.6,25.9,30.21,WNW,292,6.4,6.4,23,0.00,OVC,FEW,0.00,800.0,WeatherDisplay:10.37,2014-04-24 21:56:00,
2014-04-24 15:01:00,64.4,25.8,30.21,NW,315,7.1,7.1,23,0.00,OVC,FEW,0.00,1300.0,WeatherDisplay:10.37,2014-04-24 22:01:00,
2014-04-24 15:06:00,64.2,23.4,30.21,WSW,248,18.4,18.4,21,0.00,OVC,FEW,0.00,1300.0,WeatherDisplay:10.37,2014-04-24 22:06:00,
2014-04-24 15:11:00,64.4,22.4,30.21,ENE,68,6.9,6.9,20,0.00,OVC,FEW,0.00,1300.0,WeatherDisplay:10.37,2014-04-24 22:11:00,
2014-04-24 15:16:00,65.1,23.0,30.21,WSW,248,4.7,4.7,20,0.00,OVC,FEW,0.00,1300.0,WeatherDisplay:10.37,2014-04-24 22:16:00,
2014-04-24 15:21:00,64.4,22.4,30.21,WSW,248,9.2,9.2,20,0.00,OVC,FEW,0.00,1100.0,WeatherDisplay:10.37,2014-04-24 22:21:00,
2014-04-24 15:26:00,64.0,23.3,30.21,NNE,22,4.6,4.6,21,0.00,OVC,FEW,0.00,1600.0,WeatherDisplay:10.37,2014-04-24 22:26:00,
2014-04-24 15:31:00,64.8,22.7,30.21,WNW,292,8.1,8.1,20,0.00,OVC,FEW,0.00,1500.0,WeatherDisplay:10.37,2014-04-24 22:31:00,
2014-04-24 15:36:00,64.6,22.6,30.21,West,270,8.1,8.1,20,0.00,OVC,FEW,0.00,1500.0,WeatherDisplay:10.37,2014-04-24 22:36:00,
2014-04-24 15:41:00,64.4,22.4,30.21,West,270,9.2,9.2,20,0.00,OVC,FEW,0.00,1600.0,WeatherDisplay:10.37,2014-04-24 22:41:00,
2014-04-24 15:46:00,64.9,22.9,30.18,SW,225,5.8,5.8,20,0.00,OVC,FEW,0.00,1600.0,WeatherDisplay:10.37,2014-04-24 22:46:00,
2014-04-24 15:51:00,64.6,22.6,30.18,ESE,112,8.1,8.1,20,0.00,OVC,FEW,0.00,1300.0,WeatherDisplay:10.37,2014-04-24 22:51:00,
2014-04-24 15:56:00,64.8,22.7,30.15,WNW,292,9.2,9.2,20,0.00,OVC,FEW,0.00,1400.0,WeatherDisplay:10.37,2014-04-24 22:56:00,
2014-04-24 16:01:00,64.2,23.4,30.15,SSW,202,11.5,11.5,21,0.00,OVC,FEW,0.00,1400.0,WeatherDisplay:10.37,2014-04-24 23:01:00,
2014-04-24 16:06:00,64.2,23.4,30.15,SSE,158,5.8,6.0,21,0.00,OVC,FEW,0.00,1200.0,WeatherDisplay:10.37,2014-04-24 23:06:00,
2014-04-24 16:11:00,64.4,22.4,30.15,SE,135,3.8,3.8,20,0.00,OVC,FEW,0.00,1300.0,WeatherDisplay:10.37,2014-04-24 23:11:00,
2014-04-24 16:16:00,65.3,23.2,30.15,NW,315,3.8,3.8,20,0.00,OVC,FEW,0.00,800.0,WeatherDisplay:10.37,2014-04-24 23:16:00,
2014-04-24 16:21:00,64.2,23.4,30.15,NNW,338,12.8,12.8,21,0.00,OVC,FEW,0.00,1200.0,WeatherDisplay:10.37,2014-04-24 23:21:00,
2014-04-24 16:26:00,64.2,23.4,30.15,NW,315,4.9,4.9,21,0.00,OVC,FEW,0.00,1100.0,WeatherDisplay:10.37,2014-04-24 23:26:00,
2014-04-24 16:31:00,64.0,23.3,30.15,WSW,248,8.1,8.1,21,0.00,OVC,FEW,0.00,1000.0,WeatherDisplay:10.37,2014-04-24 23:31:00,
2014-04-24 16:36:00,63.7,23.0,30.15,West,270,5.8,5.8,21,0.00,OVC,FEW,0.00,700.0,WeatherDisplay:10.37,2014-04-24 23:36:00,
2014-04-24 16:41:00,63.5,19.2,30.15,WNW,292,10.0,10.0,18,0.00,OVC,FEW,0.00,800.0,WeatherDisplay:10.37,2014-04-24 23:41:00,
2014-04-24 16:46:00,63.5,22.8,30.15,WNW,292,9.2,9.2,21,0.00,OVC,FEW,0.00,700.0,WeatherDisplay:10.37,2014-04-24 23:46:00,
2014-04-24 16:51:00,63.5,19.2,30.15,West,270,3.5,3.5,18,0.00,OVC,FEW,0.00,600.0,WeatherDisplay:10.37,2014-04-24 23:51:00,
2014-04-24 16:56:00,63.5,19.2,30.15,South,180,8.1,8.1,18,0.00,OVC,FEW,0.00,600.0,WeatherDisplay:10.37,2014-04-24 23:56:00,
2014-04-24 17:01:00,63.1,18.9,30.15,West,270,13.0,13.0,18,0.00,OVC,FEW,0.00,500.0,WeatherDisplay:10.37,2014-04-25 00:01:00,
2014-04-24 17:06:00,63.0,18.7,30.15,SSW,202,5.8,5.8,18,0.00,OVC,FEW,0.00,600.0,WeatherDisplay:10.37,2014-04-25 00:06:00,
2014-04-24 17:11:00,63.3,19.0,30.15,SW,225,8.1,8.1,18,0.00,OVC,FEW,0.00,500.0,WeatherDisplay:10.37,2014-04-25 00:11:00,
2014-04-24 17:16:00,63.1,18.9,30.15,WNW,292,5.8,5.8,18,0.00,OVC,FEW,0.00,500.0,WeatherDisplay:10.37,2014-04-25 00:16:00,
2014-04-24 17:21:00,63.0,18.7,30.15,NW,315,7.8,7.8,18,0.00,OVC,FEW,0.00,400.0,WeatherDisplay:10.37,2014-04-25 00:21:00,
2014-04-24 17:26:00,62.6,18.4,30.15,NW,315,10.4,10.4,18,0.00,OVC,FEW,0.00,400.0,WeatherDisplay:10.37,2014-04-25 00:26:00,
2014-04-24 17:31:00,61.9,19.1,30.15,SSW,202,10.4,10.4,19,0.00,OVC,FEW,0.00,300.0,WeatherDisplay:10.37,2014-04-25 00:31:00,
2014-04-24 17:36:00,62.1,19.3,30.15,ENE,68,5.8,5.8,19,0.00,OVC,FEW,0.00,300.0,WeatherDisplay:10.37,2014-04-25 00:36:00,
2014-04-24 17:41:00,61.9,19.1,30.15,SSE,158,4.6,4.6,19,0.00,OVC,FEW,0.00,300.0,WeatherDisplay:10.37,2014-04-25 00:41:00,
2014-04-24 17:46:00,61.7,19.0,30.15,NNW,338,3.5,3.5,19,0.00,OVC,FEW,0.00,300.0,WeatherDisplay:10.37,2014-04-25 00:46:00,
2014-04-24 17:51:00,61.5,18.8,30.15,SSW,202,13.8,13.8,19,0.00,OVC,FEW,0.00,300.0,WeatherDisplay:10.37,2014-04-25 00:51:00,
2014-04-24 17:56:00,61.0,18.4,30.15,West,270,11.5,11.5,19,0.00,OVC,FEW,0.00,200.0,WeatherDisplay:10.37,2014-04-25 00:56:00,
2014-04-24 18:01:00,60.8,18.2,30.15,SSE,158,6.4,6.4,19,0.00,OVC,FEW,0.00,200.0,WeatherDisplay:10.37,2014-04-25 01:01:00,
2014-04-24 18:06:00,60.6,18.1,30.15,WNW,292,4.9,4.9,19,0.00,OVC,FEW,0.00,200.0,WeatherDisplay:10.37,2014-04-25 01:06:00,
2014-04-24 18:11:00,60.4,17.9,30.12,NW,315,3.5,3.5,19,0.00,OVC,FEW,0.00,200.0,WeatherDisplay:10.37,2014-04-25 01:11:00,
2014-04-24 18:16:00,59.7,17.3,30.12,SW,225,5.8,5.8,19,0.00,OVC,FEW,0.00,100.0,WeatherDisplay:10.37,2014-04-25 01:16:00,
2014-04-24 18:21:00,59.5,17.2,30.12,WNW,292,7.1,7.1,19,0.00,OVC,FEW,0.00,100.0,WeatherDisplay:10.37,2014-04-25 01:21:00,
2014-04-24 18:26:00,59.0,16.7,30.15,West,270,8.1,8.1,19,0.00,OVC,FEW,0.00,100.0,WeatherDisplay:10.37,2014-04-25 01:26:00,
2014-04-24 18:31:00,58.8,20.0,30.15,WSW,248,7.1,7.1,22,0.00,OVC,FEW,0.00,100.0,WeatherDisplay:10.37,2014-04-25 01:31:00,
2014-04-24 18:36:00,58.6,19.9,30.15,WSW,248,4.0,4.0,22,0.00,OVC,FEW,0.00,100.0,WeatherDisplay:10.37,2014-04-25 01:36:00,
2014-04-24 18:41:00,58.6,19.9,30.15,NNW,338,4.6,4.6,22,0.00,OVC,FEW,0.00,100.0,WeatherDisplay:10.37,2014-04-25 01:41:00,
2014-04-24 18:46:00,57.7,19.1,30.15,NW,315,4.6,4.6,22,0.00,OVC,FEW,0.00,100.0,WeatherDisplay:10.37,2014-04-25 01:46:00,
2014-04-24 18:51:00,57.4,18.8,30.15,NNW,338,8.1,8.1,22,0.00,OVC,FEW,0.00,0.0,WeatherDisplay:10.37,2014-04-25 01:51:00,
2014-04-24 18:56:00,56.8,21.3,30.15,WNW,292,6.9,6.9,25,0.00,OVC,FEW,0.00,0.0,WeatherDisplay:10.37,2014-04-25 01:56:00,
2014-04-24 19:01:00,56.8,18.3,30.15,SE,135,4.6,4.6,22,0.00,OVC,FEW,0.00,0.0,WeatherDisplay:10.37,2014-04-25 02:01:00,
2014-04-24 19:06:00,56.7,18.2,30.15,North,0,4.9,4.9,22,0.00,OVC,FEW,0.00,0.0,WeatherDisplay:10.37,2014-04-25 02:06:00,
2014-04-24 19:11:00,56.5,18.0,30.15,WSW,248,2.9,3.6,22,0.00,OVC,FEW,0.00,0.0,WeatherDisplay:10.37,2014-04-25 02:11:00,
2014-04-24 19:16:00,56.3,17.9,30.15,WSW,248,2.3,0.0,22,0.00,OVC,FEW,0.00,0.0,WeatherDisplay:10.37,2014-04-25 02:16:00,
2014-04-24 19:21:00,55.9,17.6,30.15,WNW,292,5.8,5.8,22,0.00,OVC,FEW,0.00,0.0,WeatherDisplay:10.37,2014-04-25 02:21:00,
2014-04-24 19:26:00,55.8,15.2,30.12,NNW,338,5.8,5.8,20,0.00,OVC,FEW,0.00,0.0,WeatherDisplay:10.37,2014-04-25 02:26:00,
2014-04-24 19:31:00,55.8,15.2,30.12,North,0,3.3,3.3,20,0.00,OVC,FEW,0.00,0.0,WeatherDisplay:10.37,2014-04-25 02:31:00,
2014-04-24 19:36:00,55.6,15.1,30.12,SSE,158,3.5,3.5,20,0.00,OVC,FEW,0.00,0.0,WeatherDisplay:10.37,2014-04-25 02:36:00,
2014-04-24 19:41:00,55.2,14.8,30.12,SE,135,5.8,5.8,20,0.00,OVC,FEW,0.00,0.0,WeatherDisplay:10.37,2014-04-25 02:41:00,
2014-04-24 19:46:00,55.0,14.6,30.12,SE,135,2.3,2.3,20,0.00,OVC,FEW,0.00,0.0,WeatherDisplay:10.37,2014-04-25 02:46:00,
2014-04-24 19:51:00,54.7,14.3,30.12,SE,135,5.8,5.8,20,0.00,OVC,FEW,0.00,0.0,WeatherDisplay:10.37,2014-04-25 02:51:00,
2014-04-24 19:56:00,54.5,14.2,30.15,NW,315,5.8,5.8,20,0.00,OVC,FEW,0.00,0.0,WeatherDisplay:10.37,2014-04-25 02:56:00,
2014-04-24 20:01:00,54.3,14.0,30.15,SSE,158,3.5,3.5,20,0.00,CLR,FEW,0.00,0.0,WeatherDisplay:10.37,2014-04-25 03:01:00,
2014-04-24 20:06:00,54.1,13.9,30.15,East,90,1.4,1.4,20,0.00,CLR,FEW,0.00,0.0,WeatherDisplay:10.37,2014-04-25 03:06:00,
2014-04-24 20:11:00,54.0,13.7,30.15,NNE,22,3.1,3.1,20,0.00,CLR,FEW,0.00,0.0,WeatherDisplay:10.37,2014-04-25 03:11:00,
2014-04-24 20:16:00,53.8,13.6,30.15,East,90,6.9,6.9,20,0.00,CLR,FEW,0.00,0.0,WeatherDisplay:10.37,2014-04-25 03:16:00,
2014-04-24 20:21:00,53.4,14.4,30.15,ESE,112,2.3,2.4,21,0.00,CLR,FEW,0.00,0.0,WeatherDisplay:10.37,2014-04-25 03:21:00,
2014-04-24 20:26:00,53.1,14.1,30.15,NNE,22,2.3,2.3,21,0.00,CLR,FEW,0.00,0.0,WeatherDisplay:10.37,2014-04-25 03:26:00,
2014-04-24 20:31:00,53.1,14.1,30.15,NNE,22,5.8,5.8,21,0.00,CLR,FEW,0.00,0.0,WeatherDisplay:10.37,2014-04-25 03:31:00,
2014-04-24 20:36:00,52.9,16.0,30.15,SSW,202,2.3,2.3,23,0.00,CLR,FEW,0.00,0.0,WeatherDisplay:10.37,2014-04-25 03:36:00,
2014-04-24 20:41:00,52.5,15.7,30.15,SSE,158,2.3,2.3,23,0.00,CLR,FEW,0.00,0.0,WeatherDisplay:10.37,2014-04-25 03:41:00,
2014-04-24 20:46:00,52.3,15.6,30.15,SSE,158,1.1,0.0,23,0.00,CLR,FEW,0.00,0.0,WeatherDisplay:10.37,2014-04-25 03:46:00,
2014-04-24 20:51:00,52.2,15.4,30.15,NNE,22,3.1,3.1,23,0.00,CLR,FEW,0.00,0.0,WeatherDisplay:10.37,2014-04-25 03:51:00,
2014-04-24 20:56:00,52.0,15.3,30.15,NNE,22,7.4,7.4,23,0.00,CLR,FEW,0.00,0.0,WeatherDisplay:10.37,2014-04-25 03:56:00,
2014-04-24 21:01:00,52.0,15.3,30.15,ESE,112,5.8,5.8,23,0.00,CLR,FEW,0.00,0.0,WeatherDisplay:10.37,2014-04-25 04:01:00,
2014-04-24 21:02:00,52.0,15.3,30.15,North,0,6.2,6.2,23,0.00,CLR,FEW,0.00,0.0,WeatherDisplay:10.37,2014-04-25 04:02:00,
2014-04-24 21:07:00,51.6,17.8,30.15,WNW,292,5.8,5.8,26,0.00,CLR,FEW,0.00,0.0,WeatherDisplay:10.37,2014-04-25 04:07:00,
2014-04-24 21:12:00,51.1,17.3,30.15,WSW,248,6.2,6.2,26,0.00,CLR,FEW,0.00,0.0,WeatherDisplay:10.37,2014-04-25 04:12:00,
2014-04-24 21:15:00,50.7,17.0,30.15,WNW,292,10.0,10.0,26,0.00,CLR,FEW,0.00,0.0,WeatherDisplay:10.37,2014-04-25 04:15:00,
2014-04-24 21:20:00,50.5,16.9,30.15,WSW,248,2.9,2.9,26,0.00,CLR,FEW,0.00,0.0,WeatherDisplay:10.37,2014-04-25 04:20:00,
2014-04-24 21:25:00,50.2,17.4,30.15,NW,315,5.8,5.8,27,0.00,CLR,FEW,0.00,0.0,WeatherDisplay:10.37,2014-04-25 04:25:00,
2014-04-24 21:30:00,50.4,17.6,30.15,SW,225,6.9,6.9,27,0.00,CLR,FEW,0.00,0.0,WeatherDisplay:10.37,2014-04-25 04:30:00,